Time;durP1;ratioP1;P1;durP2;ratioP2;P2;SDS_P1;SDS_P2;PMS_P1;PMS_P2;Temp;Humidity;BMP_temperature;BMP_pressure;BME280_temperature;BME280_humidity;BME280_pressure;Samples;Min_cycle;Max_cycle;Signal;HPM_P1;HPM_P2
2022/10/13 00:01:21;;;;;;;0.30;0.30;;;;;;;;;;7378704;19;20244;-70
2022/10/13 00:03:47;;;;;;;0.30;0.30;;;;;;;;;;7383116;19;20137;-71
2022/10/13 00:06:15;;;;;;;0.30;0.30;;;;;;;;;;7382780;19;20145;-70
2022/10/13 00:08:41;;;;;;;0.30;0.30;;;;;;;;;;7383456;19;20188;-69
2022/10/13 00:11:15;;;;;;;0.32;0.32;;;;;;;;;;7386580;19;20502;-70
2022/10/13 00:13:41;;;;;;;0.40;0.40;;;;;;;;;;7376046;19;20141;-69
2022/10/13 00:16:07;;;;;;;0.30;0.30;;;;;;;;;;7379877;19;20148;-70
2022/10/13 00:18:32;;;;;;;0.30;0.30;;;;;;;;;;7381948;19;20132;-69
2022/10/13 00:20:57;;;;;;;0.30;0.30;;;;;;;;;;7383747;19;20627;-71
2022/10/13 00:23:23;;;;;;;0.30;0.30;;;;;;;;;;7381852;19;20121;-70
2022/10/13 00:25:49;;;;;;;0.20;0.20;;;;;;;;;;7382359;19;20145;-70
2022/10/13 00:28:17;;;;;;;0.30;0.30;;;;;;;;;;7382094;19;20645;-70
2022/10/13 00:30:42;;;;;;;0.90;0.65;;;;;;;;;;7374816;19;20129;-70
2022/10/13 00:33:09;;;;;;;0.30;0.30;;;;;;;;;;7383774;19;20135;-70
2022/10/13 00:35:39;;;;;;;0.30;0.30;;;;;;;;;;7382368;19;20200;-71
2022/10/13 00:38:04;;;;;;;0.30;0.30;;;;;;;;;;7382627;19;20153;-70
2022/10/13 00:40:30;;;;;;;0.20;0.20;;;;;;;;;;7380060;19;20133;-70
2022/10/13 00:42:55;;;;;;;0.30;0.30;;;;;;;;;;7381501;19;20148;-69
2022/10/13 00:45:28;;;;;;;0.30;0.30;;;;;;;;;;7371185;19;20145;-70
2022/10/13 00:48:00;;;;;;;0.30;0.30;;;;;;;;;;7376227;19;20148;-69
2022/10/13 00:50:33;;;;;;;0.30;0.30;;;;;;;;;;7374076;19;20125;-70
2022/10/13 00:52:58;;;;;;;0.30;0.30;;;;;;;;;;7381805;19;20240;-70
2022/10/13 00:55:28;;;;;;;0.30;0.30;;;;;;;;;;7377026;19;20157;-70
2022/10/13 00:57:54;;;;;;;0.40;0.40;;;;;;;;;;7382272;19;20149;-69
2022/10/13 01:00:23;;;;;;;0.70;0.70;;;;;;;;;;7381403;19;20154;-70
2022/10/13 01:02:49;;;;;;;0.30;0.30;;;;;;;;;;7385076;19;20147;-68
2022/10/13 01:05:15;;;;;;;0.20;0.20;;;;;;;;;;7380162;19;20160;-70
2022/10/13 01:07:41;;;;;;;0.30;0.30;;;;;;;;;;7379748;19;20145;-70
2022/10/13 01:10:06;;;;;;;0.30;0.30;;;;;;;;;;7366312;19;20152;-68
2022/10/13 01:12:59;;;;;;;0.45;0.45;;;;;;;;;;7368015;19;20165;-70
2022/10/13 01:15:30;;;;;;;0.30;0.30;;;;;;;;;;7370257;19;20153;-70
2022/10/13 01:18:53;;;;;;;0.40;0.40;;;;;;;;;;7366977;19;20148;-70
2022/10/13 01:21:36;;;;;;;0.30;0.30;;;;;;;;;;7366448;19;20141;-68
2022/10/13 01:24:07;;;;;;;0.20;0.20;;;;;;;;;;7357034;19;20229;-69
2022/10/13 01:27:13;;;;;;;0.30;0.30;;;;;;;;;;7368659;19;20139;-69
2022/10/13 01:30:14;;;;;;;0.30;0.30;;;;;;;;;;7367143;19;20137;-68
2022/10/13 01:32:58;;;;;;;0.30;0.30;;;;;;;;;;7362405;19;20140;-68
2022/10/13 01:35:52;;;;;;;0.30;0.30;;;;;;;;;;7371062;19;20184;-70
2022/10/13 01:38:36;;;;;;;0.30;0.30;;;;;;;;;;7370454;19;21540;-70
2022/10/13 01:41:21;;;;;;;0.40;0.40;;;;;;;;;;7368570;19;20602;-70
2022/10/13 01:43:55;;;;;;;0.30;0.30;;;;;;;;;;7367457;19;20177;-70
2022/10/13 01:46:27;;;;;;;0.30;0.30;;;;;;;;;;7364949;19;20614;-70
2022/10/13 01:48:55;;;;;;;0.30;0.30;;;;;;;;;;7368490;19;20132;-70
2022/10/13 01:51:22;;;;;;;0.50;0.50;;;;;;;;;;7366995;19;20185;-70
2022/10/13 01:53:48;;;;;;;0.20;0.20;;;;;;;;;;7364275;19;20144;-69
2022/10/13 01:56:14;;;;;;;0.30;0.30;;;;;;;;;;7365496;19;20155;-69
2022/10/13 01:58:40;;;;;;;0.30;0.30;;;;;;;;;;7358002;19;20166;-68
2022/10/13 02:01:13;;;;;;;0.30;0.30;;;;;;;;;;7367945;19;20136;-70
2022/10/13 02:03:58;;;;;;;0.30;0.30;;;;;;;;;;7361399;19;20121;-71
2022/10/13 02:06:31;;;;;;;0.30;0.30;;;;;;;;;;7365586;19;20581;-69
2022/10/13 02:09:09;;;;;;;0.55;0.55;;;;;;;;;;7369074;19;20124;-70
2022/10/13 02:11:34;;;;;;;0.30;0.30;;;;;;;;;;7381537;19;20622;-70
2022/10/13 02:14:07;;;;;;;0.30;0.30;;;;;;;;;;7380444;19;20192;-70
2022/10/13 02:16:38;;;;;;;0.20;0.20;;;;;;;;;;7377130;19;20514;-71
2022/10/13 02:19:05;;;;;;;0.30;0.30;;;;;;;;;;7374551;19;20125;-68
2022/10/13 02:21:31;;;;;;;1.17;0.73;;;;;;;;;;7366597;19;20121;-69
2022/10/13 02:23:56;;;;;;;0.30;0.30;;;;;;;;;;7371344;19;20135;-70
2022/10/13 02:26:22;;;;;;;0.30;0.30;;;;;;;;;;7364772;19;20125;-70
2022/10/13 02:28:47;;;;;;;0.30;0.30;;;;;;;;;;7365070;19;20125;-68
2022/10/13 02:31:12;;;;;;;0.30;0.30;;;;;;;;;;7374491;19;20129;-69
2022/10/13 02:33:38;;;;;;;0.30;0.30;;;;;;;;;;7378954;19;20144;-69
2022/10/13 02:36:03;;;;;;;0.20;0.20;;;;;;;;;;7375571;19;21828;-71
2022/10/13 02:38:29;;;;;;;0.30;0.30;;;;;;;;;;7377556;19;20169;-70
2022/10/13 02:40:55;;;;;;;0.30;0.30;;;;;;;;;;7376726;19;20124;-72
2022/10/13 02:43:20;;;;;;;0.40;0.40;;;;;;;;;;7380652;19;20120;-71
2022/10/13 02:45:45;;;;;;;0.35;0.35;;;;;;;;;;7374351;19;20172;-69
2022/10/13 02:48:10;;;;;;;0.20;0.20;;;;;;;;;;7379606;19;20105;-69
2022/10/13 02:50:36;;;;;;;0.30;0.30;;;;;;;;;;7378113;19;20129;-70
2022/10/13 02:53:01;;;;;;;0.45;0.45;;;;;;;;;;7373706;19;20575;-70
2022/10/13 02:55:26;;;;;;;0.68;0.68;;;;;;;;;;7381673;19;20489;-69
2022/10/13 02:57:52;;;;;;;0.20;0.20;;;;;;;;;;7381120;19;20588;-71
2022/10/13 03:00:17;;;;;;;0.40;0.40;;;;;;;;;;7377971;19;20468;-70
2022/10/13 03:02:43;;;;;;;0.30;0.30;;;;;;;;;;7377479;19;20113;-72
2022/10/13 03:05:09;;;;;;;0.20;0.20;;;;;;;;;;7375597;19;20185;-72
2022/10/13 03:07:34;;;;;;;0.30;0.30;;;;;;;;;;7381094;19;20184;-70
2022/10/13 03:10:00;;;;;;;0.30;0.30;;;;;;;;;;7378142;19;20121;-69
2022/10/13 03:12:25;;;;;;;0.47;0.47;;;;;;;;;;7378832;19;20129;-69
2022/10/13 03:14:51;;;;;;;0.30;0.30;;;;;;;;;;7378057;19;20233;-70
2022/10/13 03:17:16;;;;;;;0.30;0.30;;;;;;;;;;7377318;19;20157;-69
2022/10/13 03:19:41;;;;;;;0.38;0.38;;;;;;;;;;7374278;19;20591;-70
2022/10/13 03:22:07;;;;;;;0.30;0.30;;;;;;;;;;7372542;19;20121;-72
2022/10/13 03:24:32;;;;;;;0.20;0.20;;;;;;;;;;7376076;19;20148;-69
2022/10/13 03:26:57;;;;;;;0.20;0.20;;;;;;;;;;7376038;19;20125;-69
2022/10/13 03:29:22;;;;;;;0.30;0.30;;;;;;;;;;7374110;19;20627;-69
2022/10/13 03:31:48;;;;;;;0.30;0.30;;;;;;;;;;7369200;19;20125;-69
2022/10/13 03:34:14;;;;;;;0.30;0.30;;;;;;;;;;7376358;19;20629;-72
2022/10/13 03:36:40;;;;;;;0.30;0.30;;;;;;;;;;7375918;19;20137;-71
2022/10/13 03:39:05;;;;;;;0.30;0.30;;;;;;;;;;7377082;19;20140;-71
2022/10/13 03:41:31;;;;;;;0.30;0.30;;;;;;;;;;7367947;19;20114;-69
2022/10/13 03:43:56;;;;;;;0.35;0.35;;;;;;;;;;7370518;19;20187;-70
2022/10/13 03:46:23;;;;;;;0.30;0.30;;;;;;;;;;7372851;19;20644;-70
2022/10/13 03:48:49;;;;;;;0.30;0.30;;;;;;;;;;7365118;19;20156;-70
2022/10/13 03:51:16;;;;;;;0.60;0.60;;;;;;;;;;7371824;19;20125;-70
2022/10/13 03:53:42;;;;;;;0.20;0.20;;;;;;;;;;7369496;19;20141;-69
2022/10/13 03:56:13;;;;;;;0.50;0.50;;;;;;;;;;7369855;19;20181;-69
2022/10/13 03:58:38;;;;;;;1.98;1.20;;;;;;;;;;7374673;19;20125;-70
2022/10/13 04:01:04;;;;;;;0.30;0.30;;;;;;;;;;7382505;19;20125;-69
2022/10/13 04:03:30;;;;;;;0.30;0.30;;;;;;;;;;7381677;19;20109;-69
2022/10/13 04:05:59;;;;;;;0.30;0.30;;;;;;;;;;7374252;19;20614;-70
2022/10/13 04:08:24;;;;;;;1.10;1.10;;;;;;;;;;7374081;19;20129;-72
2022/10/13 04:11:09;;;;;;;0.30;0.30;;;;;;;;;;7378884;19;20208;-69
2022/10/13 04:13:34;;;;;;;0.30;0.30;;;;;;;;;;7374046;19;20121;-70
2022/10/13 04:16:04;;;;;;;0.40;0.40;;;;;;;;;;7379053;19;20182;-71
2022/10/13 04:18:29;;;;;;;0.30;0.30;;;;;;;;;;7375155;19;20136;-71
2022/10/13 04:20:54;;;;;;;0.30;0.30;;;;;;;;;;7382347;19;20230;-69
2022/10/13 04:23:20;;;;;;;0.28;0.28;;;;;;;;;;7386248;19;20160;-72
2022/10/13 04:25:45;;;;;;;0.30;0.30;;;;;;;;;;7384560;19;20153;-70
2022/10/13 04:28:11;;;;;;;0.30;0.30;;;;;;;;;;7381215;19;20525;-70
2022/10/13 04:30:36;;;;;;;0.30;0.30;;;;;;;;;;7379228;19;20213;-69
2022/10/13 04:33:02;;;;;;;0.30;0.30;;;;;;;;;;7363535;19;20640;-70
2022/10/13 04:35:27;;;;;;;0.30;0.30;;;;;;;;;;7385067;19;20240;-69
2022/10/13 04:37:53;;;;;;;0.30;0.30;;;;;;;;;;7375522;19;20130;-69
2022/10/13 04:40:18;;;;;;;0.40;0.40;;;;;;;;;;7383365;19;20113;-70
2022/10/13 04:42:43;;;;;;;0.30;0.30;;;;;;;;;;7385964;19;20125;-70
2022/10/13 04:45:09;;;;;;;0.30;0.30;;;;;;;;;;7381834;19;20276;-69
2022/10/13 04:47:35;;;;;;;0.30;0.30;;;;;;;;;;7379042;19;20143;-70
2022/10/13 04:50:01;;;;;;;0.45;0.45;;;;;;;;;;7375522;19;20827;-69
2022/10/13 04:52:26;;;;;;;0.30;0.30;;;;;;;;;;7372137;19;20120;-72
2022/10/13 04:54:51;;;;;;;0.30;0.30;;;;;;;;;;7386993;19;20682;-71
2022/10/13 04:57:17;;;;;;;0.30;0.30;;;;;;;;;;7382324;19;20181;-72
2022/10/13 04:59:42;;;;;;;0.30;0.30;;;;;;;;;;7379837;19;20117;-70
2022/10/13 05:02:09;;;;;;;0.30;0.30;;;;;;;;;;7374602;19;20537;-70
2022/10/13 05:04:34;;;;;;;0.52;0.52;;;;;;;;;;7368318;19;20859;-70
2022/10/13 05:07:00;;;;;;;0.30;0.30;;;;;;;;;;7376290;19;20205;-70
2022/10/13 05:09:25;;;;;;;0.30;0.30;;;;;;;;;;7372971;19;20113;-70
2022/10/13 05:11:50;;;;;;;0.30;0.30;;;;;;;;;;7383001;19;20148;-70
2022/10/13 05:14:16;;;;;;;0.30;0.30;;;;;;;;;;7374517;19;20140;-70
2022/10/13 05:16:41;;;;;;;0.30;0.30;;;;;;;;;;7362339;19;20128;-70
2022/10/13 05:19:06;;;;;;;0.47;0.47;;;;;;;;;;7379564;19;20137;-70
2022/10/13 05:21:32;;;;;;;0.30;0.30;;;;;;;;;;7379949;19;20129;-70
2022/10/13 05:23:58;;;;;;;0.30;0.30;;;;;;;;;;7381498;19;20153;-70
2022/10/13 05:26:28;;;;;;;0.80;0.80;;;;;;;;;;7374961;19;20169;-70
2022/10/13 05:28:57;;;;;;;0.30;0.30;;;;;;;;;;7377661;19;20154;-70
2022/10/13 05:31:24;;;;;;;0.65;0.65;;;;;;;;;;7373802;19;20125;-70
2022/10/13 05:33:51;;;;;;;0.30;0.30;;;;;;;;;;7386227;19;20574;-70
2022/10/13 05:36:31;;;;;;;0.30;0.30;;;;;;;;;;7379557;19;20152;-70
2022/10/13 05:39:03;;;;;;;0.40;0.40;;;;;;;;;;7379063;19;20133;-70
2022/10/13 05:41:29;;;;;;;0.40;0.40;;;;;;;;;;7365014;19;21738;-71
2022/10/13 05:44:03;;;;;;;0.25;0.25;;;;;;;;;;7372513;19;20148;-70
2022/10/13 05:46:29;;;;;;;0.30;0.30;;;;;;;;;;7377374;19;20128;-70
2022/10/13 05:48:54;;;;;;;0.30;0.30;;;;;;;;;;7381755;19;20588;-70
2022/10/13 05:51:29;;;;;;;0.35;0.35;;;;;;;;;;7377363;19;20129;-70
2022/10/13 05:54:29;;;;;;;0.20;0.20;;;;;;;;;;7378769;19;20135;-71
2022/10/13 05:57:14;;;;;;;0.30;0.30;;;;;;;;;;7378517;19;20205;-71
2022/10/13 05:59:43;;;;;;;0.30;0.30;;;;;;;;;;7374031;19;20129;-70
2022/10/13 06:02:11;;;;;;;0.30;0.30;;;;;;;;;;7381768;19;20262;-70
2022/10/13 06:04:48;;;;;;;0.30;0.30;;;;;;;;;;7375612;19;20630;-70
2022/10/13 06:07:13;;;;;;;0.30;0.30;;;;;;;;;;7370387;19;20125;-70
2022/10/13 06:09:40;;;;;;;0.40;0.40;;;;;;;;;;7375234;19;20156;-70
2022/10/13 06:12:06;;;;;;;0.30;0.30;;;;;;;;;;7377383;19;20141;-70
2022/10/13 06:14:32;;;;;;;0.20;0.20;;;;;;;;;;7376576;19;20507;-70
2022/10/13 06:16:57;;;;;;;0.30;0.30;;;;;;;;;;7373707;19;20113;-70
2022/10/13 06:19:22;;;;;;;0.30;0.30;;;;;;;;;;7377999;19;20136;-71
2022/10/13 06:21:48;;;;;;;0.30;0.30;;;;;;;;;;7376077;19;20113;-70
2022/10/13 06:24:13;;;;;;;0.30;0.30;;;;;;;;;;7379867;19;20144;-70
2022/10/13 06:26:38;;;;;;;0.32;0.32;;;;;;;;;;7380545;19;20150;-70
2022/10/13 06:29:04;;;;;;;0.20;0.20;;;;;;;;;;7379661;19;20615;-70
2022/10/13 06:31:29;;;;;;;0.40;0.40;;;;;;;;;;7375578;19;20562;-70
2022/10/13 06:33:54;;;;;;;0.20;0.20;;;;;;;;;;7381019;19;20242;-70
2022/10/13 06:36:20;;;;;;;0.30;0.30;;;;;;;;;;7383239;19;20121;-70
2022/10/13 06:38:45;;;;;;;0.30;0.30;;;;;;;;;;7377602;19;20200;-71
2022/10/13 06:41:13;;;;;;;0.85;0.85;;;;;;;;;;7375443;19;20222;-70
2022/10/13 06:43:38;;;;;;;0.30;0.30;;;;;;;;;;7379257;19;20204;-70
2022/10/13 06:46:04;;;;;;;0.30;0.30;;;;;;;;;;7373226;19;20169;-70
2022/10/13 06:48:29;;;;;;;0.30;0.30;;;;;;;;;;7379931;19;20133;-70
2022/10/13 06:50:59;;;;;;;0.30;0.30;;;;;;;;;;7375460;19;20180;-70
2022/10/13 06:53:24;;;;;;;0.30;0.30;;;;;;;;;;7383952;19;20145;-70
2022/10/13 06:55:49;;;;;;;0.85;0.85;;;;;;;;;;7378159;19;20152;-71
2022/10/13 06:58:15;;;;;;;0.30;0.30;;;;;;;;;;7380422;19;20613;-71
2022/10/13 07:00:41;;;;;;;0.30;0.30;;;;;;;;;;7376819;19;20117;-71
2022/10/13 07:03:06;;;;;;;0.40;0.40;;;;;;;;;;7374664;19;20180;-70
2022/10/13 07:05:31;;;;;;;0.20;0.20;;;;;;;;;;7371129;19;20182;-70
2022/10/13 07:07:57;;;;;;;0.30;0.30;;;;;;;;;;7382320;19;20121;-70
2022/10/13 07:10:22;;;;;;;0.30;0.30;;;;;;;;;;7383765;19;20148;-70
2022/10/13 07:12:47;;;;;;;0.75;0.75;;;;;;;;;;7379072;19;20129;-70
2022/10/13 07:15:13;;;;;;;0.30;0.30;;;;;;;;;;7385936;19;20168;-70
2022/10/13 07:17:38;;;;;;;0.40;0.40;;;;;;;;;;7369157;19;20487;-70
2022/10/13 07:20:04;;;;;;;0.40;0.40;;;;;;;;;;7369805;19;20121;-70
2022/10/13 07:22:30;;;;;;;0.30;0.30;;;;;;;;;;7376520;19;20164;-71
2022/10/13 07:24:55;;;;;;;0.30;0.30;;;;;;;;;;7377589;19;20150;-70
2022/10/13 07:27:21;;;;;;;0.30;0.30;;;;;;;;;;7381527;19;20612;-70
2022/10/13 07:29:46;;;;;;;0.40;0.40;;;;;;;;;;7383691;19;20162;-71
2022/10/13 07:32:12;;;;;;;1.23;1.13;;;;;;;;;;7390642;19;20148;-71
2022/10/13 07:34:37;;;;;;;0.50;0.50;;;;;;;;;;7368485;19;20553;-71
2022/10/13 07:37:02;;;;;;;0.38;0.38;;;;;;;;;;7388307;19;20145;-71
2022/10/13 07:39:28;;;;;;;0.30;0.30;;;;;;;;;;7390785;19;20141;-71
2022/10/13 07:41:53;;;;;;;0.30;0.30;;;;;;;;;;7389191;19;20481;-70
2022/10/13 07:44:18;;;;;;;0.40;0.40;;;;;;;;;;7389144;19;20136;-70
2022/10/13 07:46:44;;;;;;;0.30;0.30;;;;;;;;;;7385069;19;20143;-70
2022/10/13 07:49:09;;;;;;;0.30;0.30;;;;;;;;;;7389128;19;20552;-71
2022/10/13 07:51:34;;;;;;;0.30;0.30;;;;;;;;;;7384641;19;20133;-70
2022/10/13 07:53:59;;;;;;;0.40;0.40;;;;;;;;;;7381925;19;20147;-70
2022/10/13 07:56:25;;;;;;;0.88;0.88;;;;;;;;;;7387570;19;20624;-71
2022/10/13 07:58:50;;;;;;;0.50;0.50;;;;;;;;;;7385778;19;20468;-70
2022/10/13 08:01:16;;;;;;;0.30;0.30;;;;;;;;;;7376356;19;20125;-70
2022/10/13 08:03:42;;;;;;;0.75;0.75;;;;;;;;;;7372951;19;20585;-70
2022/10/13 08:06:08;;;;;;;0.50;0.50;;;;;;;;;;7361549;19;20549;-70
2022/10/13 08:08:34;;;;;;;0.20;0.20;;;;;;;;;;7383991;19;20139;-70
2022/10/13 08:11:04;;;;;;;0.60;0.60;;;;;;;;;;7384983;19;20131;-70
2022/10/13 08:13:29;;;;;;;0.30;0.30;;;;;;;;;;7389836;19;20623;-71
2022/10/13 08:15:58;;;;;;;0.30;0.30;;;;;;;;;;7369433;19;20177;-70
2022/10/13 08:18:24;;;;;;;0.70;0.70;;;;;;;;;;7366253;19;20246;-70
2022/10/13 08:20:49;;;;;;;2.50;1.52;;;;;;;;;;7375218;19;21370;-70
2022/10/13 08:23:14;;;;;;;0.30;0.30;;;;;;;;;;7370498;19;20140;-72
2022/10/13 08:25:41;;;;;;;0.30;0.30;;;;;;;;;;7385320;19;20156;-71
2022/10/13 08:28:19;;;;;;;0.50;0.50;;;;;;;;;;7358817;19;20654;-71
2022/10/13 08:30:44;;;;;;;0.30;0.30;;;;;;;;;;7354127;19;20133;-70
2022/10/13 08:33:10;;;;;;;0.20;0.20;;;;;;;;;;7371021;19;20132;-71
2022/10/13 08:35:35;;;;;;;0.25;0.25;;;;;;;;;;7364523;19;20517;-71
2022/10/13 08:38:01;;;;;;;0.93;0.93;;;;;;;;;;7362909;19;20118;-71
2022/10/13 08:40:26;;;;;;;0.30;0.30;;;;;;;;;;7361895;19;20117;-71
2022/10/13 08:42:51;;;;;;;0.50;0.50;;;;;;;;;;7370433;19;20136;-71
2022/10/13 08:45:37;;;;;;;0.30;0.30;;;;;;;;;;7375406;19;20148;-71
2022/10/13 08:48:04;;;;;;;0.30;0.30;;;;;;;;;;7376879;19;20216;-71
2022/10/13 08:50:35;;;;;;;0.95;0.95;;;;;;;;;;7370042;19;20167;-71
2022/10/13 08:53:08;;;;;;;0.30;0.30;;;;;;;;;;7369229;19;20631;-71
2022/10/13 08:55:35;;;;;;;0.90;0.90;;;;;;;;;;7368181;19;20175;-71
2022/10/13 08:58:01;;;;;;;0.45;0.45;;;;;;;;;;7370899;19;20144;-71
2022/10/13 09:00:28;;;;;;;0.45;0.45;;;;;;;;;;7356340;19;20667;-71
2022/10/13 09:02:57;;;;;;;0.30;0.30;;;;;;;;;;7368261;19;20144;-72
2022/10/13 09:05:36;;;;;;;0.30;0.30;;;;;;;;;;7363153;19;20151;-72
2022/10/13 09:08:03;;;;;;;0.50;0.50;;;;;;;;;;7362510;19;20766;-72
2022/10/13 09:10:28;;;;;;;0.30;0.30;;;;;;;;;;7363932;19;20184;-72
2022/10/13 09:12:54;;;;;;;1.80;1.00;;;;;;;;;;7359679;19;20136;-72
2022/10/13 09:15:20;;;;;;;0.40;0.40;;;;;;;;;;7353887;19;21110;-72
2022/10/13 09:18:09;;;;;;;0.55;0.55;;;;;;;;;;7364933;19;20145;-72
2022/10/13 09:20:34;;;;;;;0.30;0.30;;;;;;;;;;7358137;19;20129;-72
2022/10/13 09:23:04;;;;;;;0.30;0.30;;;;;;;;;;7368685;19;20128;-72
2022/10/13 09:25:39;;;;;;;0.50;0.50;;;;;;;;;;7371222;19;20180;-72
2022/10/13 09:28:18;;;;;;;0.40;0.40;;;;;;;;;;7380732;19;20140;-72
2022/10/13 09:30:48;;;;;;;0.20;0.20;;;;;;;;;;7382830;19;20156;-72
2022/10/13 09:33:22;;;;;;;0.30;0.30;;;;;;;;;;7383110;19;20117;-72
2022/10/13 09:36:05;;;;;;;0.70;0.70;;;;;;;;;;7388220;19;20176;-72
2022/10/13 09:38:31;;;;;;;0.30;0.30;;;;;;;;;;7385164;19;20508;-72
2022/10/13 09:41:09;;;;;;;0.30;0.30;;;;;;;;;;7388527;19;20157;-72
2022/10/13 09:43:42;;;;;;;0.30;0.30;;;;;;;;;;7391555;19;20556;-72
2022/10/13 09:46:37;;;;;;;0.50;0.50;;;;;;;;;;7388631;19;20657;-72
2022/10/13 09:49:36;;;;;;;0.40;0.40;;;;;;;;;;7389784;19;20168;-72
2022/10/13 09:52:06;;;;;;;0.30;0.30;;;;;;;;;;7389203;19;20129;-72
2022/10/13 09:54:34;;;;;;;0.30;0.30;;;;;;;;;;7387918;19;20156;-72
2022/10/13 09:57:03;;;;;;;0.30;0.30;;;;;;;;;;7391536;19;20145;-72
2022/10/13 09:59:35;;;;;;;0.45;0.45;;;;;;;;;;7392064;19;20238;-72
2022/10/13 10:02:11;;;;;;;0.28;0.28;;;;;;;;;;7392232;19;20136;-72
2022/10/13 10:04:37;;;;;;;0.20;0.20;;;;;;;;;;7391716;19;20145;-72
2022/10/13 10:07:15;;;;;;;0.30;0.30;;;;;;;;;;7391009;19;20133;-73
2022/10/13 10:09:46;;;;;;;0.30;0.30;;;;;;;;;;7390385;19;20141;-72
2022/10/13 10:12:17;;;;;;;0.30;0.30;;;;;;;;;;7389416;19;20219;-72
2022/10/13 10:14:42;;;;;;;0.30;0.30;;;;;;;;;;7389304;19;20165;-72
2022/10/13 10:17:08;;;;;;;0.70;0.70;;;;;;;;;;7387373;19;20117;-72
2022/10/13 10:19:55;;;;;;;0.70;0.70;;;;;;;;;;7390288;19;20129;-72
2022/10/13 10:22:33;;;;;;;0.30;0.30;;;;;;;;;;7392211;19;20542;-72
2022/10/13 10:25:11;;;;;;;1.10;1.10;;;;;;;;;;7388435;19;20168;-73
2022/10/13 10:27:47;;;;;;;0.30;0.30;;;;;;;;;;7388384;19;20152;-73
2022/10/13 10:30:18;;;;;;;0.82;0.82;;;;;;;;;;7387896;19;20582;-72
2022/10/13 10:33:03;;;;;;;0.30;0.30;;;;;;;;;;7388299;19;20637;-72
2022/10/13 10:36:15;;;;;;;0.93;0.93;;;;;;;;;;7391009;19;20192;-73
2022/10/13 10:38:49;;;;;;;0.68;0.68;;;;;;;;;;7388319;19;20148;-73
2022/10/13 10:41:39;;;;;;;0.30;0.30;;;;;;;;;;7387133;19;20125;-72
2022/10/13 10:44:25;;;;;;;0.30;0.30;;;;;;;;;;7387272;19;20208;-72
2022/10/13 10:46:53;;;;;;;0.68;0.68;;;;;;;;;;7386596;19;20171;-72
2022/10/13 10:49:24;;;;;;;0.30;0.30;;;;;;;;;;7387188;19;20176;-73
2022/10/13 10:51:50;;;;;;;0.40;0.40;;;;;;;;;;7386996;19;20477;-72
2022/10/13 10:54:22;;;;;;;1.25;0.93;;;;;;;;;;7385950;19;20159;-74
2022/10/13 10:56:59;;;;;;;0.90;0.85;;;;;;;;;;7387566;19;20651;-72
2022/10/13 10:59:28;;;;;;;0.40;0.40;;;;;;;;;;7386719;19;20121;-72
2022/10/13 11:01:56;;;;;;;0.70;0.70;;;;;;;;;;7386730;19;20595;-73
2022/10/13 11:04:42;;;;;;;0.30;0.30;;;;;;;;;;7389894;19;20153;-72
2022/10/13 11:07:14;;;;;;;0.50;0.50;;;;;;;;;;7389619;19;20543;-73
2022/10/13 11:09:42;;;;;;;0.57;0.57;;;;;;;;;;7389035;19;20133;-73
2022/10/13 11:12:19;;;;;;;0.30;0.30;;;;;;;;;;7390883;19;20125;-72
2022/10/13 11:15:02;;;;;;;0.40;0.40;;;;;;;;;;7390392;19;20144;-72
2022/10/13 11:17:37;;;;;;;1.00;0.95;;;;;;;;;;7381775;19;20591;-72
2022/10/13 11:20:18;;;;;;;2.53;0.50;;;;;;;;;;7387190;19;20125;-73
2022/10/13 11:22:58;;;;;;;0.73;0.73;;;;;;;;;;7388395;19;20462;-72
2022/10/13 11:25:44;;;;;;;0.50;0.50;;;;;;;;;;7386418;19;20649;-72
2022/10/13 11:28:21;;;;;;;0.30;0.30;;;;;;;;;;7389655;19;20129;-72
2022/10/13 11:30:54;;;;;;;0.30;0.30;;;;;;;;;;7388797;19;20248;-73
2022/10/13 11:33:37;;;;;;;0.60;0.60;;;;;;;;;;7388922;19;20117;-72
2022/10/13 11:36:26;;;;;;;0.40;0.40;;;;;;;;;;7387845;19;20149;-73
2022/10/13 11:38:59;;;;;;;4.30;1.27;;;;;;;;;;7390856;19;20125;-73
2022/10/13 11:41:26;;;;;;;0.93;0.93;;;;;;;;;;7383858;19;20136;-72
2022/10/13 11:44:03;;;;;;;2.58;0.70;;;;;;;;;;7386455;19;20121;-72
2022/10/13 11:46:47;;;;;;;0.63;0.63;;;;;;;;;;7386149;19;20208;-72
2022/10/13 11:49:43;;;;;;;1.00;0.73;;;;;;;;;;7387693;19;20149;-72
2022/10/13 11:52:21;;;;;;;0.57;0.57;;;;;;;;;;7389848;19;20587;-72
2022/10/13 11:54:54;;;;;;;0.40;0.40;;;;;;;;;;7385887;19;20624;-73
2022/10/13 11:57:24;;;;;;;1.52;1.17;;;;;;;;;;7388084;19;20534;-72
2022/10/13 11:59:54;;;;;;;2.35;2.15;;;;;;;;;;7386176;19;20145;-73
2022/10/13 12:02:21;;;;;;;0.40;0.40;;;;;;;;;;7381511;19;20462;-73
2022/10/13 12:05:17;;;;;;;0.40;0.40;;;;;;;;;;7383974;19;20153;-73
2022/10/13 12:07:42;;;;;;;0.40;0.40;;;;;;;;;;7386234;19;20155;-73
2022/10/13 12:10:17;;;;;;;0.47;0.47;;;;;;;;;;7383848;19;20192;-72
2022/10/13 12:12:48;;;;;;;0.82;0.82;;;;;;;;;;7385310;19;20199;-73
2022/10/13 12:15:37;;;;;;;0.82;0.82;;;;;;;;;;7383012;19;20661;-72
2022/10/13 12:18:26;;;;;;;0.50;0.50;;;;;;;;;;7390343;19;20159;-73
2022/10/13 12:20:57;;;;;;;0.85;0.85;;;;;;;;;;7391467;19;20148;-72
2022/10/13 12:23:23;;;;;;;1.10;0.80;;;;;;;;;;7391933;19;20132;-73
2022/10/13 12:25:55;;;;;;;0.65;0.65;;;;;;;;;;7389067;19;20718;-72
2022/10/13 12:28:20;;;;;;;0.88;0.85;;;;;;;;;;7392179;19;20216;-72
2022/10/13 12:30:54;;;;;;;0.80;0.80;;;;;;;;;;7389487;19;20158;-72
2022/10/13 12:33:34;;;;;;;0.35;0.35;;;;;;;;;;7392838;19;20142;-72
2022/10/13 12:36:17;;;;;;;1.40;1.35;;;;;;;;;;7390916;19;20652;-72
2022/10/13 12:38:47;;;;;;;0.35;0.35;;;;;;;;;;7394032;19;20144;-72
2022/10/13 12:41:16;;;;;;;0.38;0.38;;;;;;;;;;7393155;19;20124;-72
2022/10/13 12:43:42;;;;;;;0.82;0.82;;;;;;;;;;7395353;19;20145;-72
2022/10/13 12:46:08;;;;;;;0.40;0.40;;;;;;;;;;7385603;19;20598;-73
2022/10/13 12:48:37;;;;;;;0.38;0.38;;;;;;;;;;7391178;19;20154;-73
2022/10/13 12:51:19;;;;;;;0.45;0.45;;;;;;;;;;7388681;19;20141;-72
2022/10/13 12:53:45;;;;;;;0.70;0.70;;;;;;;;;;7391793;19;20144;-72
2022/10/13 12:56:30;;;;;;;0.30;0.30;;;;;;;;;;7389400;19;20160;-72
2022/10/13 12:58:56;;;;;;;0.30;0.30;;;;;;;;;;7388310;19;20496;-72
2022/10/13 13:01:26;;;;;;;0.55;0.45;;;;;;;;;;7392120;19;20155;-72
2022/10/13 13:03:57;;;;;;;0.55;0.55;;;;;;;;;;7393073;19;20136;-72
2022/10/13 13:06:27;;;;;;;0.30;0.30;;;;;;;;;;7392281;19;20125;-72
2022/10/13 13:09:17;;;;;;;0.30;0.30;;;;;;;;;;7395003;19;20152;-72
2022/10/13 13:11:43;;;;;;;0.20;0.20;;;;;;;;;;7390907;19;20153;-72
2022/10/13 13:14:36;;;;;;;0.35;0.35;;;;;;;;;;7392932;19;20165;-72
2022/10/13 13:17:06;;;;;;;0.30;0.30;;;;;;;;;;7392706;19;20610;-72
2022/10/13 13:19:33;;;;;;;0.40;0.40;;;;;;;;;;7394677;19;20129;-72
2022/10/13 13:21:59;;;;;;;0.30;0.30;;;;;;;;;;7388288;19;20139;-72
2022/10/13 13:24:24;;;;;;;0.75;0.63;;;;;;;;;;7389457;19;20180;-72
2022/10/13 13:26:49;;;;;;;1.20;0.80;;;;;;;;;;7388542;19;20156;-72
2022/10/13 13:29:15;;;;;;;0.35;0.35;;;;;;;;;;7386152;19;20129;-72
2022/10/13 13:31:40;;;;;;;0.35;0.35;;;;;;;;;;7390967;19;20152;-72
2022/10/13 13:34:05;;;;;;;0.50;0.50;;;;;;;;;;7392537;19;20499;-72
2022/10/13 13:36:31;;;;;;;0.38;0.38;;;;;;;;;;7394879;19;20619;-72
2022/10/13 13:38:56;;;;;;;0.50;0.50;;;;;;;;;;7392682;19;20670;-72
2022/10/13 13:41:22;;;;;;;0.38;0.38;;;;;;;;;;7390780;19;20153;-72
2022/10/13 13:43:48;;;;;;;0.30;0.30;;;;;;;;;;7392810;19;20148;-72
2022/10/13 13:46:16;;;;;;;0.68;0.68;;;;;;;;;;7391136;19;20148;-75
2022/10/13 13:48:41;;;;;;;0.30;0.30;;;;;;;;;;7394088;19;20152;-72
2022/10/13 13:51:09;;;;;;;0.30;0.30;;;;;;;;;;7393390;19;20603;-72
2022/10/13 13:53:35;;;;;;;0.20;0.20;;;;;;;;;;7391986;19;20140;-72
2022/10/13 13:56:00;;;;;;;0.35;0.35;;;;;;;;;;7390555;19;20149;-72
2022/10/13 13:58:26;;;;;;;0.30;0.30;;;;;;;;;;7390678;19;20448;-72
2022/10/13 14:00:51;;;;;;;0.40;0.40;;;;;;;;;;7391420;19;20525;-72
2022/10/13 14:03:16;;;;;;;0.52;0.52;;;;;;;;;;7391621;19;20208;-72
2022/10/13 14:05:42;;;;;;;0.82;0.82;;;;;;;;;;7390188;19;20160;-72
2022/10/13 14:08:07;;;;;;;0.40;0.40;;;;;;;;;;7390060;19;20149;-71
2022/10/13 14:10:33;;;;;;;1.13;0.85;;;;;;;;;;7390274;19;20136;-75
2022/10/13 14:12:59;;;;;;;1.20;1.20;;;;;;;;;;7390568;19;20225;-75
2022/10/13 14:15:24;;;;;;;0.50;0.50;;;;;;;;;;7390028;19;20175;-72
2022/10/13 14:17:53;;;;;;;0.30;0.30;;;;;;;;;;7391455;19;20513;-72
2022/10/13 14:20:19;;;;;;;0.30;0.30;;;;;;;;;;7392226;19;20129;-73
2022/10/13 14:22:44;;;;;;;0.30;0.30;;;;;;;;;;7390212;19;20125;-72
2022/10/13 14:25:10;;;;;;;1.52;1.45;;;;;;;;;;7390635;19;20557;-72
2022/10/13 14:27:35;;;;;;;0.30;0.30;;;;;;;;;;7393059;19;20133;-72
2022/10/13 14:30:02;;;;;;;0.30;0.30;;;;;;;;;;7392718;19;20180;-72
2022/10/13 14:32:28;;;;;;;0.30;0.30;;;;;;;;;;7385065;19;20213;-72
2022/10/13 14:34:53;;;;;;;0.57;0.45;;;;;;;;;;7386520;19;20603;-72
2022/10/13 14:37:18;;;;;;;0.30;0.30;;;;;;;;;;7390483;19;20530;-72
2022/10/13 14:39:43;;;;;;;0.40;0.40;;;;;;;;;;7387314;19;20129;-72
2022/10/13 14:42:09;;;;;;;0.30;0.30;;;;;;;;;;7387997;19;20157;-72
2022/10/13 14:44:34;;;;;;;0.30;0.30;;;;;;;;;;7386944;19;20653;-72
2022/10/13 14:46:59;;;;;;;0.30;0.30;;;;;;;;;;7386168;19;20160;-72
2022/10/13 14:49:25;;;;;;;1.17;1.08;;;;;;;;;;7386559;19;20160;-71
2022/10/13 14:51:50;;;;;;;0.30;0.30;;;;;;;;;;7386847;19;20136;-72
2022/10/13 14:54:16;;;;;;;0.20;0.20;;;;;;;;;;7388926;19;20141;-71
2022/10/13 14:56:43;;;;;;;0.30;0.30;;;;;;;;;;7386576;19;20168;-71
2022/10/13 14:59:09;;;;;;;0.30;0.30;;;;;;;;;;7387658;19;20208;-72